sensor_id;sensor_type;location;lat;lon;timestamp;pressure;altitude;pressure_sealevel;temperature;humidity
65880;BME280;52661;51.364;6.054;2023-06-14T00:00:38;100961.81;;;20.79;59.77
65880;BME280;52661;51.364;6.054;2023-06-14T00:03:08;100960.81;;;20.64;61.87
65880;BME280;52661;51.364;6.054;2023-06-14T00:05:35;100962.75;;;20.54;64.22
65880;BME280;52661;51.364;6.054;2023-06-14T00:08:06;100962.22;;;20.69;62.99
65880;BME280;52661;51.364;6.054;2023-06-14T00:10:33;100969.34;;;20.57;63.58
65880;BME280;52661;51.364;6.054;2023-06-14T00:13:04;100962.75;;;20.54;63.16
65880;BME280;52661;51.364;6.054;2023-06-14T00:15:30;100968.00;;;20.61;64.94
65880;BME280;52661;51.364;6.054;2023-06-14T00:17:56;100965.69;;;20.60;64.23
65880;BME280;52661;51.364;6.054;2023-06-14T00:20:26;100977.91;;;20.50;64.18
65880;BME280;52661;51.364;6.054;2023-06-14T00:22:52;100973.59;;;20.49;63.12
65880;BME280;52661;51.364;6.054;2023-06-14T00:25:17;100976.81;;;20.47;62.50
65880;BME280;52661;51.364;6.054;2023-06-14T00:27:42;100979.09;;;20.49;62.62
65880;BME280;52661;51.364;6.054;2023-06-14T00:30:08;100982.38;;;20.35;64.47
65880;BME280;52661;51.364;6.054;2023-06-14T00:32:34;100978.31;;;20.27;63.38
65880;BME280;52661;51.364;6.054;2023-06-14T00:34:59;100977.03;;;20.40;64.44
65880;BME280;52661;51.364;6.054;2023-06-14T00:37:24;100977.22;;;20.24;63.52
65880;BME280;52661;51.364;6.054;2023-06-14T00:39:50;100983.59;;;20.34;63.90
65880;BME280;52661;51.364;6.054;2023-06-14T00:42:28;100982.81;;;20.55;64.06
65880;BME280;52661;51.364;6.054;2023-06-14T00:44:54;100977.13;;;20.49;64.57
65880;BME280;52661;51.364;6.054;2023-06-14T00:47:19;100988.19;;;20.37;62.78
65880;BME280;52661;51.364;6.054;2023-06-14T00:49:46;100983.72;;;20.30;63.52
65880;BME280;52661;51.364;6.054;2023-06-14T00:52:13;100981.91;;;20.14;61.71
65880;BME280;52661;51.364;6.054;2023-06-14T00:54:40;100982.22;;;20.17;59.93
65880;BME280;52661;51.364;6.054;2023-06-14T00:57:06;100977.97;;;20.03;61.88
65880;BME280;52661;51.364;6.054;2023-06-14T00:59:32;100975.84;;;19.85;64.14
65880;BME280;52661;51.364;6.054;2023-06-14T01:01:58;100973.28;;;19.91;64.99
65880;BME280;52661;51.364;6.054;2023-06-14T01:04:24;100977.19;;;20.02;64.29
65880;BME280;52661;51.364;6.054;2023-06-14T01:09:40;100984.09;;;19.85;62.19
65880;BME280;52661;51.364;6.054;2023-06-14T01:12:15;100984.41;;;19.87;61.64
65880;BME280;52661;51.364;6.054;2023-06-14T01:14:41;100987.28;;;19.84;64.06
65880;BME280;52661;51.364;6.054;2023-06-14T01:17:08;100987.69;;;19.95;64.69
65880;BME280;52661;51.364;6.054;2023-06-14T01:19:41;100982.00;;;19.77;66.00
65880;BME280;52661;51.364;6.054;2023-06-14T01:22:08;100989.06;;;19.78;65.33
65880;BME280;52661;51.364;6.054;2023-06-14T01:24:34;100982.25;;;19.82;65.40
65880;BME280;52661;51.364;6.054;2023-06-14T01:27:00;100984.22;;;19.69;66.11
65880;BME280;52661;51.364;6.054;2023-06-14T01:29:27;100981.19;;;19.54;66.27
65880;BME280;52661;51.364;6.054;2023-06-14T01:31:58;100989.31;;;19.58;66.11
65880;BME280;52661;51.364;6.054;2023-06-14T01:34:24;100985.59;;;19.52;67.13
65880;BME280;52661;51.364;6.054;2023-06-14T01:36:49;100983.38;;;19.47;66.18
65880;BME280;52661;51.364;6.054;2023-06-14T01:39:17;100983.50;;;19.31;66.83
65880;BME280;52661;51.364;6.054;2023-06-14T01:41:43;100982.63;;;19.34;66.46
65880;BME280;52661;51.364;6.054;2023-06-14T01:44:10;100983.16;;;19.29;66.06
65880;BME280;52661;51.364;6.054;2023-06-14T01:46:36;100976.47;;;19.17;66.54
65880;BME280;52661;51.364;6.054;2023-06-14T01:49:02;100978.31;;;19.07;66.85
65880;BME280;52661;51.364;6.054;2023-06-14T01:51:27;100979.66;;;19.15;66.14
65880;BME280;52661;51.364;6.054;2023-06-14T01:53:53;100976.34;;;19.08;66.93
65880;BME280;52661;51.364;6.054;2023-06-14T01:56:18;100977.56;;;19.20;65.46
65880;BME280;52661;51.364;6.054;2023-06-14T01:58:44;100976.13;;;19.28;63.52
65880;BME280;52661;51.364;6.054;2023-06-14T02:01:09;100972.16;;;19.16;65.27
65880;BME280;52661;51.364;6.054;2023-06-14T02:03:36;100977.66;;;19.03;65.02
65880;BME280;52661;51.364;6.054;2023-06-14T02:06:03;100974.81;;;18.94;65.78
65880;BME280;52661;51.364;6.054;2023-06-14T02:08:28;100985.13;;;19.03;65.88
65880;BME280;52661;51.364;6.054;2023-06-14T02:10:54;100978.00;;;19.05;64.43
65880;BME280;52661;51.364;6.054;2023-06-14T02:13:19;100976.66;;;18.97;65.01
65880;BME280;52661;51.364;6.054;2023-06-14T02:15:44;100985.38;;;19.08;64.89
65880;BME280;52661;51.364;6.054;2023-06-14T02:18:10;100988.34;;;19.01;65.63
65880;BME280;52661;51.364;6.054;2023-06-14T02:20:36;100988.22;;;19.05;66.32
65880;BME280;52661;51.364;6.054;2023-06-14T02:23:02;100982.72;;;19.17;63.61
65880;BME280;52661;51.364;6.054;2023-06-14T02:25:28;100988.47;;;19.23;62.35
65880;BME280;52661;51.364;6.054;2023-06-14T02:27:54;100988.09;;;19.21;61.62
65880;BME280;52661;51.364;6.054;2023-06-14T02:30:20;100981.41;;;19.09;61.28
65880;BME280;52661;51.364;6.054;2023-06-14T02:32:46;100991.75;;;19.05;62.06
65880;BME280;52661;51.364;6.054;2023-06-14T02:35:11;100999.66;;;19.03;62.63
65880;BME280;52661;51.364;6.054;2023-06-14T02:37:38;101002.41;;;19.03;62.17
65880;BME280;52661;51.364;6.054;2023-06-14T02:40:05;100996.50;;;19.05;63.71
65880;BME280;52661;51.364;6.054;2023-06-14T02:42:31;101006.72;;;19.04;62.41
65880;BME280;52661;51.364;6.054;2023-06-14T02:44:56;100996.03;;;18.94;62.85
65880;BME280;52661;51.364;6.054;2023-06-14T02:47:21;101001.19;;;18.79;64.59
65880;BME280;52661;51.364;6.054;2023-06-14T02:49:47;101005.25;;;18.75;64.01
65880;BME280;52661;51.364;6.054;2023-06-14T02:52:12;100996.78;;;18.69;64.44
65880;BME280;52661;51.364;6.054;2023-06-14T02:54:38;101004.34;;;18.65;65.26
65880;BME280;52661;51.364;6.054;2023-06-14T02:57:03;101005.44;;;18.55;65.02
65880;BME280;52661;51.364;6.054;2023-06-14T02:59:29;101004.44;;;18.61;64.53
65880;BME280;52661;51.364;6.054;2023-06-14T03:01:54;101003.81;;;18.70;64.50
65880;BME280;52661;51.364;6.054;2023-06-14T03:04:20;101007.31;;;18.71;64.67
65880;BME280;52661;51.364;6.054;2023-06-14T03:06:45;101011.81;;;18.64;65.94
65880;BME280;52661;51.364;6.054;2023-06-14T03:09:15;101011.88;;;18.48;66.82
65880;BME280;52661;51.364;6.054;2023-06-14T03:11:41;101017.84;;;18.59;67.27
65880;BME280;52661;51.364;6.054;2023-06-14T03:14:06;101014.53;;;18.52;66.47
65880;BME280;52661;51.364;6.054;2023-06-14T03:16:33;101019.28;;;18.51;66.06
65880;BME280;52661;51.364;6.054;2023-06-14T03:18:58;101021.41;;;18.44;68.18
65880;BME280;52661;51.364;6.054;2023-06-14T03:21:24;101025.16;;;18.50;65.47
65880;BME280;52661;51.364;6.054;2023-06-14T03:23:51;101024.38;;;18.65;66.83
65880;BME280;52661;51.364;6.054;2023-06-14T03:26:18;101025.53;;;18.52;67.77
65880;BME280;52661;51.364;6.054;2023-06-14T03:28:47;101024.38;;;18.65;67.48
65880;BME280;52661;51.364;6.054;2023-06-14T03:31:13;101029.19;;;18.61;67.79
65880;BME280;52661;51.364;6.054;2023-06-14T03:33:39;101022.50;;;18.62;68.10
65880;BME280;52661;51.364;6.054;2023-06-14T03:36:05;101028.00;;;18.62;69.08
65880;BME280;52661;51.364;6.054;2023-06-14T03:38:30;101031.78;;;18.52;70.80
65880;BME280;52661;51.364;6.054;2023-06-14T03:40:56;101035.44;;;18.33;71.52
65880;BME280;52661;51.364;6.054;2023-06-14T03:43:21;101038.78;;;18.41;71.56
65880;BME280;52661;51.364;6.054;2023-06-14T03:45:47;101039.72;;;18.34;70.38
65880;BME280;52661;51.364;6.054;2023-06-14T03:48:12;101037.03;;;18.18;73.51
65880;BME280;52661;51.364;6.054;2023-06-14T03:50:37;101040.81;;;18.08;75.15
65880;BME280;52661;51.364;6.054;2023-06-14T03:53:04;101044.84;;;17.87;79.35
65880;BME280;52661;51.364;6.054;2023-06-14T03:55:29;101043.41;;;17.83;80.95
65880;BME280;52661;51.364;6.054;2023-06-14T03:57:56;101047.50;;;17.91;79.88
65880;BME280;52661;51.364;6.054;2023-06-14T04:00:22;101047.78;;;17.96;77.79
65880;BME280;52661;51.364;6.054;2023-06-14T04:02:48;101045.03;;;17.80;78.47
65880;BME280;52661;51.364;6.054;2023-06-14T04:05:13;101050.88;;;17.82;77.37
65880;BME280;52661;51.364;6.054;2023-06-14T04:07:42;101050.69;;;18.05;76.18
65880;BME280;52661;51.364;6.054;2023-06-14T04:10:14;101045.00;;;18.12;76.01
65880;BME280;52661;51.364;6.054;2023-06-14T04:12:39;101052.31;;;18.03;76.64
65880;BME280;52661;51.364;6.054;2023-06-14T04:15:05;101054.91;;;17.94;76.61
65880;BME280;52661;51.364;6.054;2023-06-14T04:17:32;101062.69;;;17.95;76.70
65880;BME280;52661;51.364;6.054;2023-06-14T04:20:01;101060.56;;;18.03;77.05
65880;BME280;52661;51.364;6.054;2023-06-14T04:22:28;101067.50;;;18.07;74.69
65880;BME280;52661;51.364;6.054;2023-06-14T04:24:57;101066.72;;;18.07;76.52
65880;BME280;52661;51.364;6.054;2023-06-14T04:27:23;101065.34;;;18.15;75.76
65880;BME280;52661;51.364;6.054;2023-06-14T04:29:54;101067.16;;;18.22;74.34
65880;BME280;52661;51.364;6.054;2023-06-14T04:32:25;101060.66;;;18.15;75.64
65880;BME280;52661;51.364;6.054;2023-06-14T04:34:57;101063.06;;;17.97;77.63
65880;BME280;52661;51.364;6.054;2023-06-14T04:37:24;101064.50;;;18.18;76.19
65880;BME280;52661;51.364;6.054;2023-06-14T04:39:53;101069.47;;;18.23;76.51
65880;BME280;52661;51.364;6.054;2023-06-14T04:42:21;101070.31;;;18.36;75.16
65880;BME280;52661;51.364;6.054;2023-06-14T04:44:51;101071.06;;;18.37;73.89
65880;BME280;52661;51.364;6.054;2023-06-14T04:47:17;101074.69;;;18.34;74.02
65880;BME280;52661;51.364;6.054;2023-06-14T04:49:43;101075.22;;;18.29;73.47
65880;BME280;52661;51.364;6.054;2023-06-14T04:52:08;101076.13;;;18.38;73.80
65880;BME280;52661;51.364;6.054;2023-06-14T04:54:36;101082.16;;;18.33;71.56
65880;BME280;52661;51.364;6.054;2023-06-14T04:57:06;101082.16;;;18.33;72.17
65880;BME280;52661;51.364;6.054;2023-06-14T04:59:31;101083.84;;;18.43;71.98
65880;BME280;52661;51.364;6.054;2023-06-14T05:01:58;101077.94;;;18.45;71.63
65880;BME280;52661;51.364;6.054;2023-06-14T05:04:25;101087.56;;;18.37;73.29
65880;BME280;52661;51.364;6.054;2023-06-14T05:06:52;101087.88;;;18.39;72.63
65880;BME280;52661;51.364;6.054;2023-06-14T05:09:20;101082.94;;;18.34;71.76
65880;BME280;52661;51.364;6.054;2023-06-14T05:11:46;101091.53;;;18.52;72.34
65880;BME280;52661;51.364;6.054;2023-06-14T05:14:12;101088.16;;;18.44;70.87
65880;BME280;52661;51.364;6.054;2023-06-14T05:16:38;101098.38;;;18.44;71.51
65880;BME280;52661;51.364;6.054;2023-06-14T05:19:04;101101.13;;;18.44;72.54
65880;BME280;52661;51.364;6.054;2023-06-14T05:21:30;101102.31;;;18.43;70.69
65880;BME280;52661;51.364;6.054;2023-06-14T05:23:57;101100.66;;;18.45;70.61
65880;BME280;52661;51.364;6.054;2023-06-14T05:26:22;101104.28;;;18.42;71.92
65880;BME280;52661;51.364;6.054;2023-06-14T05:28:57;101100.66;;;18.45;71.20
65880;BME280;52661;51.364;6.054;2023-06-14T05:31:23;101100.97;;;18.51;71.95
65880;BME280;52661;51.364;6.054;2023-06-14T05:33:50;101092.25;;;18.52;72.51
65880;BME280;52661;51.364;6.054;2023-06-14T05:36:15;101096.56;;;18.53;72.16
65880;BME280;52661;51.364;6.054;2023-06-14T05:38:41;101106.94;;;18.62;72.35
65880;BME280;52661;51.364;6.054;2023-06-14T05:41:06;101112.06;;;18.76;71.51
65880;BME280;52661;51.364;6.054;2023-06-14T05:43:31;101113.63;;;18.90;71.15
65880;BME280;52661;51.364;6.054;2023-06-14T05:45:57;101114.31;;;18.94;70.23
65880;BME280;52661;51.364;6.054;2023-06-14T05:48:22;101111.16;;;18.95;70.41
65880;BME280;52661;51.364;6.054;2023-06-14T05:50:48;101111.78;;;18.99;69.76
65880;BME280;52661;51.364;6.054;2023-06-14T05:53:13;101121.06;;;19.05;67.75
65880;BME280;52661;51.364;6.054;2023-06-14T05:55:39;101123.81;;;19.05;68.94
65880;BME280;52661;51.364;6.054;2023-06-14T05:58:04;101124.13;;;19.07;67.95
65880;BME280;52661;51.364;6.054;2023-06-14T06:00:29;101130.88;;;19.19;68.49
65880;BME280;52661;51.364;6.054;2023-06-14T06:02:55;101131.09;;;19.25;68.37
65880;BME280;52661;51.364;6.054;2023-06-14T06:05:23;101132.34;;;19.24;67.91
65880;BME280;52661;51.364;6.054;2023-06-14T06:07:49;101134.97;;;19.27;67.28
65880;BME280;52661;51.364;6.054;2023-06-14T06:10:14;101140.28;;;19.34;67.56
65880;BME280;52661;51.364;6.054;2023-06-14T06:12:41;101133.91;;;19.37;65.82
65880;BME280;52661;51.364;6.054;2023-06-14T06:15:06;101136.47;;;19.44;64.85
65880;BME280;52661;51.364;6.054;2023-06-14T06:17:33;101146.94;;;19.49;62.86
65880;BME280;52661;51.364;6.054;2023-06-14T06:19:58;101145.72;;;19.50;61.50
65880;BME280;52661;51.364;6.054;2023-06-14T06:22:24;101154.22;;;19.56;62.21
65880;BME280;52661;51.364;6.054;2023-06-14T06:24:49;101152.91;;;19.73;64.63
65880;BME280;52661;51.364;6.054;2023-06-14T06:27:15;101145.97;;;19.81;63.50
65880;BME280;52661;51.364;6.054;2023-06-14T06:29:42;101154.97;;;19.94;62.25
65880;BME280;52661;51.364;6.054;2023-06-14T06:32:08;101159.59;;;19.97;62.25
65880;BME280;52661;51.364;6.054;2023-06-14T06:34:34;101160.16;;;20.05;61.42
65880;BME280;52661;51.364;6.054;2023-06-14T06:37:00;101163.44;;;20.12;61.71
65880;BME280;52661;51.364;6.054;2023-06-14T06:39:26;101163.78;;;20.14;60.25
65880;BME280;52661;51.364;6.054;2023-06-14T06:41:51;101163.56;;;20.22;60.00
65880;BME280;52661;51.364;6.054;2023-06-14T06:44:17;101155.06;;;20.16;57.56
65880;BME280;52661;51.364;6.054;2023-06-14T06:46:43;101173.03;;;20.33;61.55
65880;BME280;52661;51.364;6.054;2023-06-14T06:49:09;101167.75;;;20.39;60.82
65880;BME280;52661;51.364;6.054;2023-06-14T06:51:36;101176.56;;;20.46;58.60
65880;BME280;52661;51.364;6.054;2023-06-14T06:54:02;101185.03;;;20.52;59.61
65880;BME280;52661;51.364;6.054;2023-06-14T06:56:28;101182.13;;;20.55;57.79
65880;BME280;52661;51.364;6.054;2023-06-14T06:58:53;101181.84;;;20.53;56.73
65880;BME280;52661;51.364;6.054;2023-06-14T07:01:19;101184.47;;;20.57;56.71
65880;BME280;52661;51.364;6.054;2023-06-14T07:03:45;101190.69;;;20.70;55.42
65880;BME280;52661;51.364;6.054;2023-06-14T07:06:11;101190.41;;;20.68;55.24
65880;BME280;52661;51.364;6.054;2023-06-14T07:08:36;101194.06;;;20.65;53.87
65880;BME280;52661;51.364;6.054;2023-06-14T07:11:04;101193.72;;;20.63;53.64
65880;BME280;52661;51.364;6.054;2023-06-14T07:13:30;101189.44;;;20.84;56.36
65880;BME280;52661;51.364;6.054;2023-06-14T07:15:58;101190.75;;;20.92;54.61
65880;BME280;52661;51.364;6.054;2023-06-14T07:18:23;101190.50;;;20.99;54.18
65880;BME280;52661;51.364;6.054;2023-06-14T07:20:49;101190.31;;;20.93;52.78
65880;BME280;52661;51.364;6.054;2023-06-14T07:23:15;101190.94;;;20.97;52.96
65880;BME280;52661;51.364;6.054;2023-06-14T07:25:40;101190.69;;;21.04;52.40
65880;BME280;52661;51.364;6.054;2023-06-14T07:28:06;101203.13;;;21.22;54.53
65880;BME280;52661;51.364;6.054;2023-06-14T07:30:32;101202.16;;;21.37;53.92
65880;BME280;52661;51.364;6.054;2023-06-14T07:32:57;101197.72;;;21.40;52.48
65880;BME280;52661;51.364;6.054;2023-06-14T07:35:23;101207.91;;;21.52;53.11
65880;BME280;52661;51.364;6.054;2023-06-14T07:37:48;101207.06;;;21.64;52.52
65880;BME280;52661;51.364;6.054;2023-06-14T07:40:15;101208.16;;;21.67;51.80
65880;BME280;52661;51.364;6.054;2023-06-14T07:42:41;101222.28;;;21.69;51.51
65880;BME280;52661;51.364;6.054;2023-06-14T07:45:07;101214.94;;;21.75;53.11
65880;BME280;52661;51.364;6.054;2023-06-14T07:47:33;101217.56;;;21.78;50.43
65880;BME280;52661;51.364;6.054;2023-06-14T07:49:59;101210.09;;;21.88;51.52
65880;BME280;52661;51.364;6.054;2023-06-14T07:52:24;101213.81;;;21.94;51.05
65880;BME280;52661;51.364;6.054;2023-06-14T07:54:50;101218.00;;;21.98;49.96
65880;BME280;52661;51.364;6.054;2023-06-14T07:57:15;101221.84;;;22.01;49.53
65880;BME280;52661;51.364;6.054;2023-06-14T07:59:41;101219.06;;;22.01;48.43
65880;BME280;52661;51.364;6.054;2023-06-14T08:02:06;101220.34;;;22.09;51.73
65880;BME280;52661;51.364;6.054;2023-06-14T08:04:32;101223.47;;;22.20;49.15
65880;BME280;52661;51.364;6.054;2023-06-14T08:06:59;101224.53;;;22.23;46.95
65880;BME280;52661;51.364;6.054;2023-06-14T08:09:25;101216.66;;;22.12;44.53
65880;BME280;52661;51.364;6.054;2023-06-14T08:11:50;101226.84;;;22.24;47.19
65880;BME280;52661;51.364;6.054;2023-06-14T08:14:16;101225.94;;;22.36;46.51
65880;BME280;52661;51.364;6.054;2023-06-14T08:16:41;101233.94;;;22.34;43.63
65880;BME280;52661;51.364;6.054;2023-06-14T08:19:08;101227.25;;;22.53;44.15
65880;BME280;52661;51.364;6.054;2023-06-14T08:21:33;101230.78;;;22.63;43.01
65880;BME280;52661;51.364;6.054;2023-06-14T08:24:01;101224.78;;;22.65;43.63
65880;BME280;52661;51.364;6.054;2023-06-14T08:26:27;101221.75;;;22.72;45.29
65880;BME280;52661;51.364;6.054;2023-06-14T08:28:54;101218.97;;;22.90;43.01
65880;BME280;52661;51.364;6.054;2023-06-14T08:31:20;101225.28;;;22.90;41.14
65880;BME280;52661;51.364;6.054;2023-06-14T08:33:45;101225.16;;;22.85;40.67
65880;BME280;52661;51.364;6.054;2023-06-14T08:36:11;101232.38;;;22.82;38.95
65880;BME280;52661;51.364;6.054;2023-06-14T08:38:37;101230.50;;;22.70;38.67
65880;BME280;52661;51.364;6.054;2023-06-14T08:41:04;101236.50;;;22.87;41.49
65880;BME280;52661;51.364;6.054;2023-06-14T08:43:30;101227.59;;;22.92;40.78
65880;BME280;52661;51.364;6.054;2023-06-14T08:45:58;101234.06;;;22.98;39.55
65880;BME280;52661;51.364;6.054;2023-06-14T08:48:26;101225.28;;;22.90;38.13
65880;BME280;52661;51.364;6.054;2023-06-14T08:50:56;101233.28;;;22.79;38.53
65880;BME280;52661;51.364;6.054;2023-06-14T08:53:28;101226.38;;;23.02;39.41
65880;BME280;52661;51.364;6.054;2023-06-14T08:55:54;101235.31;;;22.97;37.72
65880;BME280;52661;51.364;6.054;2023-06-14T08:58:20;101232.22;;;23.13;38.77
65880;BME280;52661;51.364;6.054;2023-06-14T09:00:49;101227.44;;;23.14;39.67
65880;BME280;52661;51.364;6.054;2023-06-14T09:03:17;101223.00;;;23.25;39.04
65880;BME280;52661;51.364;6.054;2023-06-14T09:05:45;101226.22;;;23.33;37.61
65880;BME280;52661;51.364;6.054;2023-06-14T09:08:11;101229.72;;;23.33;39.50
65880;BME280;52661;51.364;6.054;2023-06-14T09:10:36;101221.56;;;23.39;40.11
65880;BME280;52661;51.364;6.054;2023-06-14T09:13:03;101222.19;;;23.52;40.28
65880;BME280;52661;51.364;6.054;2023-06-14T09:15:32;101222.34;;;23.58;37.91
65880;BME280;52661;51.364;6.054;2023-06-14T09:18:01;101231.88;;;23.57;38.95
65880;BME280;52661;51.364;6.054;2023-06-14T09:20:29;101230.31;;;23.65;38.90
65880;BME280;52661;51.364;6.054;2023-06-14T09:22:55;101229.13;;;23.47;37.53
65880;BME280;52661;51.364;6.054;2023-06-14T09:25:20;101229.41;;;23.59;37.87
65880;BME280;52661;51.364;6.054;2023-06-14T09:27:46;101230.16;;;23.59;38.76
65880;BME280;52661;51.364;6.054;2023-06-14T09:30:12;101238.97;;;23.58;38.25
65880;BME280;52661;51.364;6.054;2023-06-14T09:32:41;101236.97;;;23.58;38.17
65880;BME280;52661;51.364;6.054;2023-06-14T09:35:08;101233.25;;;23.61;38.12
65880;BME280;52661;51.364;6.054;2023-06-14T09:37:34;101230.50;;;23.61;39.25
65880;BME280;52661;51.364;6.054;2023-06-14T09:39:59;101234.47;;;23.69;39.83
65880;BME280;52661;51.364;6.054;2023-06-14T09:42:25;101229.56;;;23.64;36.80
65880;BME280;52661;51.364;6.054;2023-06-14T09:44:54;101227.72;;;23.61;39.83
65880;BME280;52661;51.364;6.054;2023-06-14T09:47:21;101239.25;;;23.69;40.03
65880;BME280;52661;51.364;6.054;2023-06-14T09:49:47;101242.63;;;23.73;38.79
65880;BME280;52661;51.364;6.054;2023-06-14T09:52:22;101234.94;;;23.68;41.36
65880;BME280;52661;51.364;6.054;2023-06-14T09:54:49;101238.44;;;23.77;40.98
65880;BME280;52661;51.364;6.054;2023-06-14T09:57:16;101239.19;;;23.87;40.55
65880;BME280;52661;51.364;6.054;2023-06-14T09:59:44;101250.75;;;23.85;34.74
65880;BME280;52661;51.364;6.054;2023-06-14T10:02:14;101233.03;;;23.83;36.65
65880;BME280;52661;51.364;6.054;2023-06-14T10:04:48;101240.38;;;23.95;40.41
65880;BME280;52661;51.364;6.054;2023-06-14T10:07:19;101240.09;;;23.93;40.07
65880;BME280;52661;51.364;6.054;2023-06-14T10:09:46;101246.41;;;23.93;40.68
65880;BME280;52661;51.364;6.054;2023-06-14T10:12:16;101245.91;;;23.95;41.85
65880;BME280;52661;51.364;6.054;2023-06-14T10:14:49;101241.81;;;23.90;41.22
65880;BME280;52661;51.364;6.054;2023-06-14T10:20:17;101234.09;;;23.94;41.15
65880;BME280;52661;51.364;6.054;2023-06-14T10:22:50;101237.69;;;24.10;43.03
65880;BME280;52661;51.364;6.054;2023-06-14T10:25:26;101231.50;;;24.24;42.95
65880;BME280;52661;51.364;6.054;2023-06-14T10:27:53;101233.25;;;24.12;39.62
65880;BME280;52661;51.364;6.054;2023-06-14T10:30:25;101232.47;;;24.12;42.12
65880;BME280;52661;51.364;6.054;2023-06-14T10:33:07;101239.41;;;24.16;42.36
65880;BME280;52661;51.364;6.054;2023-06-14T10:35:33;101225.22;;;24.14;42.64
65880;BME280;52661;51.364;6.054;2023-06-14T10:38:09;101233.38;;;24.18;41.93
65880;BME280;52661;51.364;6.054;2023-06-14T10:40:36;101233.19;;;24.30;44.23
65880;BME280;52661;51.364;6.054;2023-06-14T10:43:21;101228.50;;;24.36;43.92
65880;BME280;52661;51.364;6.054;2023-06-14T10:48:42;101221.69;;;24.14;45.89
65880;BME280;52661;51.364;6.054;2023-06-14T10:51:19;101223.94;;;24.24;44.15
65880;BME280;52661;51.364;6.054;2023-06-14T10:53:48;101243.53;;;24.21;43.41
65880;BME280;52661;51.364;6.054;2023-06-14T10:58:52;101239.25;;;24.43;43.21
65880;BME280;52661;51.364;6.054;2023-06-14T11:01:35;101232.63;;;24.17;40.46
65880;BME280;52661;51.364;6.054;2023-06-14T11:04:08;101240.72;;;24.30;42.16
65880;BME280;52661;51.364;6.054;2023-06-14T11:06:56;101238.19;;;24.41;42.98
65880;BME280;52661;51.364;6.054;2023-06-14T11:12:06;101233.94;;;24.31;43.74
65880;BME280;52661;51.364;6.054;2023-06-14T11:14:35;101237.72;;;24.42;40.32
65880;BME280;52661;51.364;6.054;2023-06-14T11:17:00;101244.47;;;24.50;41.74
65880;BME280;52661;51.364;6.054;2023-06-14T11:19:26;101227.94;;;24.56;39.80
65880;BME280;52661;51.364;6.054;2023-06-14T11:21:53;101223.25;;;24.38;41.90
65880;BME280;52661;51.364;6.054;2023-06-14T11:24:19;101227.22;;;24.23;39.59
65880;BME280;52661;51.364;6.054;2023-06-14T11:26:46;101219.47;;;24.50;39.12
65880;BME280;52661;51.364;6.054;2023-06-14T11:29:14;101238.97;;;24.65;39.10
65880;BME280;52661;51.364;6.054;2023-06-14T11:31:43;101236.66;;;24.64;40.81
65880;BME280;52661;51.364;6.054;2023-06-14T11:34:10;101224.81;;;24.63;40.36
65880;BME280;52661;51.364;6.054;2023-06-14T11:36:35;101231.88;;;24.64;37.92
65880;BME280;52661;51.364;6.054;2023-06-14T11:39:05;101235.72;;;24.67;39.26
65880;BME280;52661;51.364;6.054;2023-06-14T11:41:43;101230.75;;;24.71;37.85
65880;BME280;52661;51.364;6.054;2023-06-14T11:44:09;101230.69;;;24.80;39.45
65880;BME280;52661;51.364;6.054;2023-06-14T11:46:35;101223.00;;;24.75;37.46
65880;BME280;52661;51.364;6.054;2023-06-14T11:49:01;101237.06;;;24.71;36.78
65880;BME280;52661;51.364;6.054;2023-06-14T11:51:33;101229.34;;;24.75;37.87
65880;BME280;52661;51.364;6.054;2023-06-14T11:54:01;101227.75;;;24.83;40.42
65880;BME280;52661;51.364;6.054;2023-06-14T11:56:28;101217.25;;;24.87;37.15
65880;BME280;52661;51.364;6.054;2023-06-14T11:58:53;101213.69;;;24.87;37.19
65880;BME280;52661;51.364;6.054;2023-06-14T12:01:22;101223.25;;;24.62;36.61
65880;BME280;52661;51.364;6.054;2023-06-14T12:03:53;101224.16;;;24.44;36.47
65880;BME280;52661;51.364;6.054;2023-06-14T12:06:29;101225.44;;;24.34;36.86
65880;BME280;52661;51.364;6.054;2023-06-14T12:08:58;101227.31;;;24.76;38.96
65880;BME280;52661;51.364;6.054;2023-06-14T12:11:23;101239.19;;;25.00;37.52
65880;BME280;52661;51.364;6.054;2023-06-14T12:13:49;101229.03;;;24.97;38.15
65880;BME280;52661;51.364;6.054;2023-06-14T12:16:14;101230.50;;;25.07;38.74
65880;BME280;52661;51.364;6.054;2023-06-14T12:18:40;101226.56;;;24.99;38.66
65880;BME280;52661;51.364;6.054;2023-06-14T12:21:10;101222.75;;;25.11;37.37
65880;BME280;52661;51.364;6.054;2023-06-14T12:23:49;101221.72;;;25.23;36.36
65880;BME280;52661;51.364;6.054;2023-06-14T12:26:16;101228.13;;;25.44;36.61
65880;BME280;52661;51.364;6.054;2023-06-14T12:28:45;101230.88;;;25.53;35.82
65880;BME280;52661;51.364;6.054;2023-06-14T12:31:12;101230.38;;;25.69;36.30
65880;BME280;52661;51.364;6.054;2023-06-14T12:33:38;101214.28;;;25.59;34.35
65880;BME280;52661;51.364;6.054;2023-06-14T12:36:05;101226.13;;;25.44;37.76
65880;BME280;52661;51.364;6.054;2023-06-14T12:38:32;101228.09;;;25.53;37.66
65880;BME280;52661;51.364;6.054;2023-06-14T12:40:58;101229.22;;;25.61;38.17
65880;BME280;52661;51.364;6.054;2023-06-14T12:43:23;101233.66;;;25.68;37.32
65880;BME280;52661;51.364;6.054;2023-06-14T12:45:49;101235.28;;;25.74;36.91
65880;BME280;52661;51.364;6.054;2023-06-14T12:48:14;101230.09;;;25.82;37.14
65880;BME280;52661;51.364;6.054;2023-06-14T12:50:41;101228.25;;;25.93;36.53
65880;BME280;52661;51.364;6.054;2023-06-14T12:53:06;101224.91;;;25.89;35.78
65880;BME280;52661;51.364;6.054;2023-06-14T12:55:32;101226.34;;;25.85;36.30
65880;BME280;52661;51.364;6.054;2023-06-14T12:57:57;101220.97;;;25.81;36.32
65880;BME280;52661;51.364;6.054;2023-06-14T13:00:23;101227.84;;;26.01;36.19
65880;BME280;52661;51.364;6.054;2023-06-14T13:02:50;101229.47;;;26.07;35.78